sensor_id;sensor_type;location;lat;lon;timestamp;pressure;altitude;pressure_sealevel;temperature;humidity
14689;BME280;7432;48.728;9.154;2023-08-21T00:01:25;147753.28;;;24.43;78.83
14689;BME280;7432;48.728;9.154;2023-08-21T00:03:52;147752.09;;;24.42;78.92
14689;BME280;7432;48.728;9.154;2023-08-21T00:06:18;147755.75;;;24.44;78.87
14689;BME280;7432;48.728;9.154;2023-08-21T00:08:45;147756.97;;;24.44;79.14
14689;BME280;7432;48.728;9.154;2023-08-21T00:11:11;147764.31;;;24.47;79.08
14689;BME280;7432;48.728;9.154;2023-08-21T00:13:39;147761.84;;;24.46;78.36
14689;BME280;7432;48.728;9.154;2023-08-21T00:16:08;147765.56;;;24.48;78.13
14689;BME280;7432;48.728;9.154;2023-08-21T00:18:34;147764.31;;;24.47;78.09
14689;BME280;7432;48.728;9.154;2023-08-21T00:21:01;147763.09;;;24.47;78.54
14689;BME280;7432;48.728;9.154;2023-08-21T00:23:28;147755.75;;;24.44;78.60
14689;BME280;7432;48.728;9.154;2023-08-21T00:25:54;147764.31;;;24.47;77.94
14689;BME280;7432;48.728;9.154;2023-08-21T00:28:21;147763.09;;;24.47;78.65
14689;BME280;7432;48.728;9.154;2023-08-21T00:30:48;147760.63;;;24.46;77.96
14689;BME280;7432;48.728;9.154;2023-08-21T00:33:15;147759.44;;;24.45;77.89
14689;BME280;7432;48.728;9.154;2023-08-21T00:35:41;147753.28;;;24.43;78.89
14689;BME280;7432;48.728;9.154;2023-08-21T00:38:08;147741.06;;;24.38;78.54
14689;BME280;7432;48.728;9.154;2023-08-21T00:40:34;147725.22;;;24.31;78.98
14689;BME280;7432;48.728;9.154;2023-08-21T00:43:01;147710.53;;;24.25;78.88
14689;BME280;7432;48.728;9.154;2023-08-21T00:45:29;147695.84;;;24.19;79.35
14689;BME280;7432;48.728;9.154;2023-08-21T00:47:57;147673.84;;;24.10;79.32
14689;BME280;7432;48.728;9.154;2023-08-21T00:50:24;147667.69;;;24.07;79.52
14689;BME280;7432;48.728;9.154;2023-08-21T00:52:51;147651.81;;;24.01;79.88
14689;BME280;7432;48.728;9.154;2023-08-21T00:55:17;147639.59;;;23.96;80.10
14689;BME280;7432;48.728;9.154;2023-08-21T00:57:44;147631.03;;;23.92;79.92
14689;BME280;7432;48.728;9.154;2023-08-21T01:00:12;147638.38;;;23.95;79.75
14689;BME280;7432;48.728;9.154;2023-08-21T01:02:39;147627.34;;;23.91;79.72
14689;BME280;7432;48.728;9.154;2023-08-21T01:05:08;147620.06;;;23.88;80.09
14689;BME280;7432;48.728;9.154;2023-08-21T01:07:38;147612.72;;;23.85;80.68
14689;BME280;7432;48.728;9.154;2023-08-21T01:10:13;147598.03;;;23.79;80.87
14689;BME280;7432;48.728;9.154;2023-08-21T01:12:48;147582.13;;;23.72;81.40
14689;BME280;7432;48.728;9.154;2023-08-21T01:15:17;147568.69;;;23.67;81.20
14689;BME280;7432;48.728;9.154;2023-08-21T01:17:45;147562.59;;;23.64;81.57
14689;BME280;7432;48.728;9.154;2023-08-21T01:20:14;147552.84;;;23.60;81.55
14689;BME280;7432;48.728;9.154;2023-08-21T01:22:41;147539.41;;;23.54;81.93
14689;BME280;7432;48.728;9.154;2023-08-21T01:25:12;147516.16;;;23.45;82.28
14689;BME280;7432;48.728;9.154;2023-08-21T01:27:43;147527.19;;;23.49;81.79
14689;BME280;7432;48.728;9.154;2023-08-21T01:30:10;147517.38;;;23.45;82.41
14689;BME280;7432;48.728;9.154;2023-08-21T01:32:42;147508.81;;;23.42;82.48
14689;BME280;7432;48.728;9.154;2023-08-21T01:35:09;147494.16;;;23.36;82.50
14689;BME280;7432;48.728;9.154;2023-08-21T01:37:38;147481.88;;;23.31;82.78
14689;BME280;7432;48.728;9.154;2023-08-21T01:40:05;147469.69;;;23.26;82.89
14689;BME280;7432;48.728;9.154;2023-08-21T01:42:33;147457.47;;;23.21;82.94
14689;BME280;7432;48.728;9.154;2023-08-21T01:44:59;147457.47;;;23.21;83.11
14689;BME280;7432;48.728;9.154;2023-08-21T01:47:26;147448.91;;;23.17;83.51
14689;BME280;7432;48.728;9.154;2023-08-21T01:49:52;147441.63;;;23.14;83.61
14689;BME280;7432;48.728;9.154;2023-08-21T01:52:19;147444.03;;;23.15;83.44
14689;BME280;7432;48.728;9.154;2023-08-21T01:54:45;147430.59;;;23.10;83.68
14689;BME280;7432;48.728;9.154;2023-08-21T01:57:13;147422.03;;;23.06;83.61
14689;BME280;7432;48.728;9.154;2023-08-21T01:59:41;147429.38;;;23.09;83.71
14689;BME280;7432;48.728;9.154;2023-08-21T02:02:07;147404.97;;;22.99;84.05
14689;BME280;7432;48.728;9.154;2023-08-21T02:04:33;147393.97;;;22.94;84.00
14689;BME280;7432;48.728;9.154;2023-08-21T02:07:00;147389.06;;;22.92;84.19
14689;BME280;7432;48.728;9.154;2023-08-21T02:09:26;147376.84;;;22.87;84.18
14689;BME280;7432;48.728;9.154;2023-08-21T02:11:52;147378.09;;;22.88;84.36
14689;BME280;7432;48.728;9.154;2023-08-21T02:14:19;147374.44;;;22.86;84.88
14689;BME280;7432;48.728;9.154;2023-08-21T02:16:47;147358.53;;;22.80;84.96
14689;BME280;7432;48.728;9.154;2023-08-21T02:19:13;147351.22;;;22.77;85.08
14689;BME280;7432;48.728;9.154;2023-08-21T02:21:40;147358.53;;;22.80;85.28
14689;BME280;7432;48.728;9.154;2023-08-21T02:24:06;147350.00;;;22.76;85.16
14689;BME280;7432;48.728;9.154;2023-08-21T02:26:32;147342.66;;;22.73;85.05
14689;BME280;7432;48.728;9.154;2023-08-21T02:28:59;147334.13;;;22.70;85.69
14689;BME280;7432;48.728;9.154;2023-08-21T02:31:25;147321.94;;;22.65;86.14
14689;BME280;7432;48.728;9.154;2023-08-21T02:33:53;147324.34;;;22.66;86.04
14689;BME280;7432;48.728;9.154;2023-08-21T02:36:19;147315.78;;;22.62;86.13
14689;BME280;7432;48.728;9.154;2023-08-21T02:38:46;147307.22;;;22.59;86.29
14689;BME280;7432;48.728;9.154;2023-08-21T02:41:12;147307.22;;;22.59;86.33
14689;BME280;7432;48.728;9.154;2023-08-21T02:43:39;147297.44;;;22.55;86.42
14689;BME280;7432;48.728;9.154;2023-08-21T02:46:05;147293.78;;;22.53;86.50
14689;BME280;7432;48.728;9.154;2023-08-21T02:48:31;147291.34;;;22.52;86.56
14689;BME280;7432;48.728;9.154;2023-08-21T02:50:59;147284.00;;;22.49;86.97
14689;BME280;7432;48.728;9.154;2023-08-21T02:53:27;147274.25;;;22.45;87.08
14689;BME280;7432;48.728;9.154;2023-08-21T02:55:54;147246.16;;;22.33;87.22
14689;BME280;7432;48.728;9.154;2023-08-21T02:58:20;147248.63;;;22.34;87.51
14689;BME280;7432;48.728;9.154;2023-08-21T03:00:47;147248.63;;;22.34;87.77
14689;BME280;7432;48.728;9.154;2023-08-21T03:03:13;147251.03;;;22.35;87.81
14689;BME280;7432;48.728;9.154;2023-08-21T03:05:40;147246.16;;;22.33;88.11
14689;BME280;7432;48.728;9.154;2023-08-21T03:08:07;147240.06;;;22.31;88.33
14689;BME280;7432;48.728;9.154;2023-08-21T03:10:34;147241.31;;;22.31;88.37
14689;BME280;7432;48.728;9.154;2023-08-21T03:13:02;147238.84;;;22.30;88.35
14689;BME280;7432;48.728;9.154;2023-08-21T03:15:28;147223.00;;;22.24;88.79
14689;BME280;7432;48.728;9.154;2023-08-21T03:17:55;147216.84;;;22.21;89.03
14689;BME280;7432;48.728;9.154;2023-08-21T03:20:21;147215.66;;;22.21;89.14
14689;BME280;7432;48.728;9.154;2023-08-21T03:22:48;147209.56;;;22.18;89.20
14689;BME280;7432;48.728;9.154;2023-08-21T03:25:15;147204.66;;;22.16;89.25
14689;BME280;7432;48.728;9.154;2023-08-21T03:27:42;147202.25;;;22.15;89.41
14689;BME280;7432;48.728;9.154;2023-08-21T03:30:10;147203.44;;;22.16;89.57
14689;BME280;7432;48.728;9.154;2023-08-21T03:32:39;147198.56;;;22.14;89.59
14689;BME280;7432;48.728;9.154;2023-08-21T03:35:06;147179.03;;;22.06;89.72
14689;BME280;7432;48.728;9.154;2023-08-21T03:37:33;147181.50;;;22.07;90.01
14689;BME280;7432;48.728;9.154;2023-08-21T03:39:59;147175.38;;;22.04;90.22
14689;BME280;7432;48.728;9.154;2023-08-21T03:42:27;147163.19;;;21.99;90.30
14689;BME280;7432;48.728;9.154;2023-08-21T03:44:53;147147.31;;;21.93;90.74
14689;BME280;7432;48.728;9.154;2023-08-21T03:47:20;147154.63;;;21.96;90.77
14689;BME280;7432;48.728;9.154;2023-08-21T03:49:46;147141.22;;;21.90;90.66
14689;BME280;7432;48.728;9.154;2023-08-21T03:52:13;147138.75;;;21.89;90.82
14689;BME280;7432;48.728;9.154;2023-08-21T03:54:40;147152.16;;;21.95;90.85
14689;BME280;7432;48.728;9.154;2023-08-21T03:57:06;147141.22;;;21.90;90.80
14689;BME280;7432;48.728;9.154;2023-08-21T03:59:34;147144.84;;;21.92;91.12
14689;BME280;7432;48.728;9.154;2023-08-21T04:02:00;147146.06;;;21.92;90.92
14689;BME280;7432;48.728;9.154;2023-08-21T04:04:27;147139.97;;;21.90;90.97
14689;BME280;7432;48.728;9.154;2023-08-21T04:06:53;147132.66;;;21.87;90.97
14689;BME280;7432;48.728;9.154;2023-08-21T04:09:19;147124.03;;;21.83;91.41
14689;BME280;7432;48.728;9.154;2023-08-21T04:11:46;147122.84;;;21.82;91.36
14689;BME280;7432;48.728;9.154;2023-08-21T04:14:12;147114.31;;;21.79;91.44
14689;BME280;7432;48.728;9.154;2023-08-21T04:16:40;147111.84;;;21.78;91.51
14689;BME280;7432;48.728;9.154;2023-08-21T04:19:06;147105.75;;;21.75;91.53
14689;BME280;7432;48.728;9.154;2023-08-21T04:21:32;147106.97;;;21.76;91.68
14689;BME280;7432;48.728;9.154;2023-08-21T04:23:59;147111.84;;;21.78;91.66
14689;BME280;7432;48.728;9.154;2023-08-21T04:26:25;147111.84;;;21.78;91.75
14689;BME280;7432;48.728;9.154;2023-08-21T04:28:52;147104.53;;;21.75;91.91
14689;BME280;7432;48.728;9.154;2023-08-21T04:31:18;147109.44;;;21.77;91.85
14689;BME280;7432;48.728;9.154;2023-08-21T04:33:46;147105.75;;;21.75;91.68
14689;BME280;7432;48.728;9.154;2023-08-21T04:36:15;147100.88;;;21.73;91.93
14689;BME280;7432;48.728;9.154;2023-08-21T04:38:42;147100.88;;;21.73;91.91
14689;BME280;7432;48.728;9.154;2023-08-21T04:41:09;147096.00;;;21.71;92.41
14689;BME280;7432;48.728;9.154;2023-08-21T04:43:35;147102.09;;;21.74;92.11
14689;BME280;7432;48.728;9.154;2023-08-21T04:46:02;147102.09;;;21.74;92.10
14689;BME280;7432;48.728;9.154;2023-08-21T04:48:28;147114.31;;;21.79;91.71
14689;BME280;7432;48.728;9.154;2023-08-21T04:50:56;147115.53;;;21.79;91.50
14689;BME280;7432;48.728;9.154;2023-08-21T04:53:22;147128.97;;;21.85;91.26
14689;BME280;7432;48.728;9.154;2023-08-21T04:55:49;147136.34;;;21.88;91.03
14689;BME280;7432;48.728;9.154;2023-08-21T04:58:15;147142.44;;;21.91;91.03
14689;BME280;7432;48.728;9.154;2023-08-21T05:00:44;147130.19;;;21.85;90.79
14689;BME280;7432;48.728;9.154;2023-08-21T05:03:10;147172.94;;;22.03;90.76
14689;BME280;7432;48.728;9.154;2023-08-21T05:05:37;147183.91;;;22.08;90.52
14689;BME280;7432;48.728;9.154;2023-08-21T05:08:05;147191.22;;;22.11;90.41
14689;BME280;7432;48.728;9.154;2023-08-21T05:10:31;147198.56;;;22.14;90.42
14689;BME280;7432;48.728;9.154;2023-08-21T05:12:58;147202.25;;;22.15;90.20
14689;BME280;7432;48.728;9.154;2023-08-21T05:15:24;147215.66;;;22.21;90.46
14689;BME280;7432;48.728;9.154;2023-08-21T05:17:51;147236.44;;;22.29;90.21
14689;BME280;7432;48.728;9.154;2023-08-21T05:20:17;147249.81;;;22.35;90.02
14689;BME280;7432;48.728;9.154;2023-08-21T05:22:43;147264.47;;;22.41;89.61
14689;BME280;7432;48.728;9.154;2023-08-21T05:25:11;147273.03;;;22.44;89.31
14689;BME280;7432;48.728;9.154;2023-08-21T05:27:38;147287.69;;;22.51;88.95
14689;BME280;7432;48.728;9.154;2023-08-21T05:30:05;147307.22;;;22.59;89.10
14689;BME280;7432;48.728;9.154;2023-08-21T05:32:32;147329.22;;;22.68;88.68
14689;BME280;7432;48.728;9.154;2023-08-21T05:34:58;147353.69;;;22.78;88.55
14689;BME280;7432;48.728;9.154;2023-08-21T05:37:25;147374.44;;;22.86;88.08
14689;BME280;7432;48.728;9.154;2023-08-21T05:39:52;147395.22;;;22.95;87.63
14689;BME280;7432;48.728;9.154;2023-08-21T05:42:19;147417.16;;;23.04;86.63
14689;BME280;7432;48.728;9.154;2023-08-21T05:44:46;147441.63;;;23.14;86.35
14689;BME280;7432;48.728;9.154;2023-08-21T05:47:12;147468.47;;;23.25;86.06
14689;BME280;7432;48.728;9.154;2023-08-21T05:49:39;147495.34;;;23.36;85.71
14689;BME280;7432;48.728;9.154;2023-08-21T05:52:05;147518.63;;;23.46;84.70
14689;BME280;7432;48.728;9.154;2023-08-21T05:54:32;147547.91;;;23.58;85.20
14689;BME280;7432;48.728;9.154;2023-08-21T05:56:58;147573.63;;;23.69;84.49
14689;BME280;7432;48.728;9.154;2023-08-21T05:59:30;147624.94;;;23.90;82.02
14689;BME280;7432;48.728;9.154;2023-08-21T06:01:57;147695.84;;;24.19;80.70
14689;BME280;7432;48.728;9.154;2023-08-21T06:04:23;147767.97;;;24.49;79.01
14689;BME280;7432;48.728;9.154;2023-08-21T06:06:49;147841.38;;;24.79;79.05
14689;BME280;7432;48.728;9.154;2023-08-21T06:09:16;147941.66;;;25.20;76.58
14689;BME280;7432;48.728;9.154;2023-08-21T06:11:43;148073.84;;;25.75;73.79
14689;BME280;7432;48.728;9.154;2023-08-21T06:14:09;148154.63;;;26.08;72.26
14689;BME280;7432;48.728;9.154;2023-08-21T06:16:37;148164.38;;;26.12;72.52
14689;BME280;7432;48.728;9.154;2023-08-21T06:19:03;148184.00;;;26.20;71.77
14689;BME280;7432;48.728;9.154;2023-08-21T06:21:30;148241.56;;;26.44;68.04
14689;BME280;7432;48.728;9.154;2023-08-21T06:23:56;148311.34;;;26.73;66.49
14689;BME280;7432;48.728;9.154;2023-08-21T06:26:22;148616.41;;;27.98;62.77
14689;BME280;7432;48.728;9.154;2023-08-21T06:28:49;148835.91;;;28.89;58.60
14689;BME280;7432;48.728;9.154;2023-08-21T06:31:15;149016.22;;;29.63;57.27
14689;BME280;7432;48.728;9.154;2023-08-21T06:33:43;149418.94;;;31.28;54.39
14689;BME280;7432;48.728;9.154;2023-08-21T06:36:09;149893.28;;;33.23;49.10
14689;BME280;7432;48.728;9.154;2023-08-21T06:38:36;150342.38;;;35.07;45.34
14689;BME280;7432;48.728;9.154;2023-08-21T06:41:02;150679.75;;;36.45;41.80
14689;BME280;7432;48.728;9.154;2023-08-21T06:43:28;150872.00;;;37.24;39.26
14689;BME280;7432;48.728;9.154;2023-08-21T06:45:55;151139.56;;;38.33;38.27
14689;BME280;7432;48.728;9.154;2023-08-21T06:48:21;151352.94;;;39.21;36.95
14689;BME280;7432;48.728;9.154;2023-08-21T06:50:49;151518.25;;;39.88;35.56
14689;BME280;7432;48.728;9.154;2023-08-21T06:53:15;151616.97;;;40.29;34.44
14689;BME280;7432;48.728;9.154;2023-08-21T06:55:44;151624.38;;;40.32;34.26
14689;BME280;7432;48.728;9.154;2023-08-21T06:58:11;151616.97;;;40.29;34.33
14689;BME280;7432;48.728;9.154;2023-08-21T07:00:37;151417.03;;;39.47;35.22
14689;BME280;7432;48.728;9.154;2023-08-21T07:03:03;150952.13;;;37.57;37.66
14689;BME280;7432;48.728;9.154;2023-08-21T07:05:32;150754.91;;;36.76;39.48
14689;BME280;7432;48.728;9.154;2023-08-21T07:08:00;150733.97;;;36.67;40.17
14689;BME280;7432;48.728;9.154;2023-08-21T07:10:26;151045.84;;;37.95;37.95
14689;BME280;7432;48.728;9.154;2023-08-21T07:12:53;151388.66;;;39.35;35.97
14689;BME280;7432;48.728;9.154;2023-08-21T07:15:19;151547.81;;;40.00;34.43
14689;BME280;7432;48.728;9.154;2023-08-21T07:17:46;151792.31;;;41.00;32.89
14689;BME280;7432;48.728;9.154;2023-08-21T07:20:12;151518.25;;;39.88;34.52
14689;BME280;7432;48.728;9.154;2023-08-21T07:22:38;150908.94;;;37.39;37.71
14689;BME280;7432;48.728;9.154;2023-08-21T07:25:07;150684.69;;;36.47;39.37
14689;BME280;7432;48.728;9.154;2023-08-21T07:27:34;150427.28;;;35.42;40.63
14689;BME280;7432;48.728;9.154;2023-08-21T07:30:00;150376.84;;;35.21;41.10
14689;BME280;7432;48.728;9.154;2023-08-21T07:32:27;150341.16;;;35.06;42.37
14689;BME280;7432;48.728;9.154;2023-08-21T07:34:53;150299.25;;;34.89;43.00
14689;BME280;7432;48.728;9.154;2023-08-21T07:37:20;150445.72;;;35.49;41.63
14689;BME280;7432;48.728;9.154;2023-08-21T07:39:46;150412.50;;;35.36;41.91
14689;BME280;7432;48.728;9.154;2023-08-21T07:42:14;150242.69;;;34.66;44.33
14689;BME280;7432;48.728;9.154;2023-08-21T07:44:41;150205.69;;;34.51;43.92
14689;BME280;7432;48.728;9.154;2023-08-21T07:47:07;150122.09;;;34.17;44.01
14689;BME280;7432;48.728;9.154;2023-08-21T07:49:33;150077.78;;;33.98;45.01
14689;BME280;7432;48.728;9.154;2023-08-21T07:52:00;150049.50;;;33.87;45.53
14689;BME280;7432;48.728;9.154;2023-08-21T07:54:26;149884.72;;;33.19;47.34
14689;BME280;7432;48.728;9.154;2023-08-21T07:56:52;149889.63;;;33.21;47.55
14689;BME280;7432;48.728;9.154;2023-08-21T07:59:20;149909.28;;;33.29;46.74
14689;BME280;7432;48.728;9.154;2023-08-21T08:01:47;149900.66;;;33.26;47.02
14689;BME280;7432;48.728;9.154;2023-08-21T08:04:13;149881.00;;;33.18;47.12
14689;BME280;7432;48.728;9.154;2023-08-21T08:06:41;149841.63;;;33.02;47.64
14689;BME280;7432;48.728;9.154;2023-08-21T08:09:07;150156.53;;;34.31;45.96
14689;BME280;7432;48.728;9.154;2023-08-21T08:11:34;150895.41;;;37.33;41.35
14689;BME280;7432;48.728;9.154;2023-08-21T08:14:00;151582.41;;;40.14;36.28
14689;BME280;7432;48.728;9.154;2023-08-21T08:16:28;152036.81;;;42.00;32.66
14689;BME280;7432;48.728;9.154;2023-08-21T08:18:54;152152.97;;;42.47;31.54
14689;BME280;7432;48.728;9.154;2023-08-21T08:21:20;152327.25;;;43.19;30.61
14689;BME280;7432;48.728;9.154;2023-08-21T08:23:47;152055.38;;;42.08;31.67
14689;BME280;7432;48.728;9.154;2023-08-21T08:26:13;152374.25;;;43.38;29.79
14689;BME280;7432;48.728;9.154;2023-08-21T08:28:40;152734.06;;;44.85;29.03
14689;BME280;7432;48.728;9.154;2023-08-21T08:31:06;152422.44;;;43.57;30.16
14689;BME280;7432;48.728;9.154;2023-08-21T08:33:34;152612.84;;;44.35;28.83
14689;BME280;7432;48.728;9.154;2023-08-21T08:36:01;152825.66;;;45.22;28.46
14689;BME280;7432;48.728;9.154;2023-08-21T08:38:27;152636.38;;;44.45;29.11
14689;BME280;7432;48.728;9.154;2023-08-21T08:40:54;152494.16;;;43.87;29.36
14689;BME280;7432;48.728;9.154;2023-08-21T08:43:22;152654.94;;;44.52;28.33
14689;BME280;7432;48.728;9.154;2023-08-21T08:45:52;152836.81;;;45.26;27.68
14689;BME280;7432;48.728;9.154;2023-08-21T08:48:21;153096.66;;;46.32;26.61
14689;BME280;7432;48.728;9.154;2023-08-21T08:50:50;153457.00;;;47.79;26.03
14689;BME280;7432;48.728;9.154;2023-08-21T08:53:18;153404.97;;;47.58;25.98
14689;BME280;7432;48.728;9.154;2023-08-21T08:55:45;153315.84;;;47.22;26.04
14689;BME280;7432;48.728;9.154;2023-08-21T08:58:11;153432.22;;;47.69;25.62
14689;BME280;7432;48.728;9.154;2023-08-21T09:00:38;153305.91;;;47.18;25.83
14689;BME280;7432;48.728;9.154;2023-08-21T09:03:04;153195.66;;;46.73;26.32
14689;BME280;7432;48.728;9.154;2023-08-21T09:05:31;153095.41;;;46.32;26.31
14689;BME280;7432;48.728;9.154;2023-08-21T09:08:11;153062.00;;;46.18;26.63
14689;BME280;7432;48.728;9.154;2023-08-21T09:10:38;153340.59;;;47.32;25.46
14689;BME280;7432;48.728;9.154;2023-08-21T09:13:14;153343.03;;;47.33;25.10
14689;BME280;7432;48.728;9.154;2023-08-21T09:15:42;153001.31;;;45.93;27.27
14689;BME280;7432;48.728;9.154;2023-08-21T09:18:09;152933.34;;;45.66;27.18
14689;BME280;7432;48.728;9.154;2023-08-21T09:20:36;153131.34;;;46.46;26.54
14689;BME280;7432;48.728;9.154;2023-08-21T09:23:03;153006.31;;;45.96;26.67
14689;BME280;7432;48.728;9.154;2023-08-21T09:25:35;152904.84;;;45.54;26.92
14689;BME280;7432;48.728;9.154;2023-08-21T09:28:04;152666.06;;;44.57;27.55
14689;BME280;7432;48.728;9.154;2023-08-21T09:30:44;152739.03;;;44.87;27.48
14689;BME280;7432;48.728;9.154;2023-08-21T09:33:11;152534.94;;;44.03;28.02
14689;BME280;7432;48.728;9.154;2023-08-21T09:35:37;152607.91;;;44.33;27.90
14689;BME280;7432;48.728;9.154;2023-08-21T09:38:04;152803.38;;;45.13;26.96
14689;BME280;7432;48.728;9.154;2023-08-21T09:40:32;153017.44;;;46.00;26.08
14689;BME280;7432;48.728;9.154;2023-08-21T09:42:59;152804.63;;;45.13;26.91
14689;BME280;7432;48.728;9.154;2023-08-21T09:45:27;152940.72;;;45.69;26.25
14689;BME280;7432;48.728;9.154;2023-08-21T09:47:54;152855.34;;;45.34;26.26
14689;BME280;7432;48.728;9.154;2023-08-21T09:50:21;152913.50;;;45.58;26.07
14689;BME280;7432;48.728;9.154;2023-08-21T09:52:48;152609.16;;;44.34;27.04
14689;BME280;7432;48.728;9.154;2023-08-21T09:55:15;152484.31;;;43.83;28.97
14689;BME280;7432;48.728;9.154;2023-08-21T09:57:41;152279.06;;;42.99;28.69
14689;BME280;7432;48.728;9.154;2023-08-21T10:00:10;152243.22;;;42.84;27.93
14689;BME280;7432;48.728;9.154;2023-08-21T10:02:42;152527.53;;;44.00;28.00
14689;BME280;7432;48.728;9.154;2023-08-21T10:05:11;152609.16;;;44.34;27.31
14689;BME280;7432;48.728;9.154;2023-08-21T10:07:38;152849.16;;;45.31;26.09
14689;BME280;7432;48.728;9.154;2023-08-21T10:10:05;152959.31;;;45.76;25.99
14689;BME280;7432;48.728;9.154;2023-08-21T10:12:32;153043.44;;;46.11;25.89
14689;BME280;7432;48.728;9.154;2023-08-21T10:14:59;153106.56;;;46.36;24.67
14689;BME280;7432;48.728;9.154;2023-08-21T10:17:26;152735.31;;;44.85;26.04
14689;BME280;7432;48.728;9.154;2023-08-21T10:19:53;152748.97;;;44.91;26.40
14689;BME280;7432;48.728;9.154;2023-08-21T10:22:38;153001.31;;;45.93;25.88
14689;BME280;7432;48.728;9.154;2023-08-21T10:25:14;153251.41;;;46.95;24.75
14689;BME280;7432;48.728;9.154;2023-08-21T10:27:42;153522.66;;;48.06;23.86
14689;BME280;7432;48.728;9.154;2023-08-21T10:30:13;153385.19;;;47.50;24.44
14689;BME280;7432;48.728;9.154;2023-08-21T10:32:46;153542.47;;;48.14;23.24
14689;BME280;7432;48.728;9.154;2023-08-21T10:35:18;153500.34;;;47.97;23.30
14689;BME280;7432;48.728;9.154;2023-08-21T10:38:06;153360.38;;;47.40;23.98
14689;BME280;7432;48.728;9.154;2023-08-21T10:40:33;153065.72;;;46.20;25.24
14689;BME280;7432;48.728;9.154;2023-08-21T10:42:59;153085.53;;;46.28;24.97
14689;BME280;7432;48.728;9.154;2023-08-21T10:45:26;153242.75;;;46.92;24.35
14689;BME280;7432;48.728;9.154;2023-08-21T10:47:56;153017.44;;;46.00;25.26
14689;BME280;7432;48.728;9.154;2023-08-21T10:50:23;152974.13;;;45.82;25.74
14689;BME280;7432;48.728;9.154;2023-08-21T10:52:51;153125.16;;;46.44;25.02
14689;BME280;7432;48.728;9.154;2023-08-21T10:55:18;153218.00;;;46.82;25.04
14689;BME280;7432;48.728;9.154;2023-08-21T10:57:46;153324.47;;;47.25;24.99
14689;BME280;7432;48.728;9.154;2023-08-21T11:00:14;153157.31;;;46.57;25.29
14689;BME280;7432;48.728;9.154;2023-08-21T11:02:43;152859.09;;;45.36;26.58
14689;BME280;7432;48.728;9.154;2023-08-21T11:05:12;152395.25;;;43.46;27.63
14689;BME280;7432;48.728;9.154;2023-08-21T11:07:40;151899.75;;;41.44;29.99
14689;BME280;7432;48.728;9.154;2023-08-21T11:10:11;151401.00;;;39.40;32.16
14689;BME280;7432;48.728;9.154;2023-08-21T11:12:48;151362.78;;;39.25;34.35
14689;BME280;7432;48.728;9.154;2023-08-21T11:15:15;151139.56;;;38.33;34.61
14689;BME280;7432;48.728;9.154;2023-08-21T11:17:42;151637.94;;;40.37;32.57
14689;BME280;7432;48.728;9.154;2023-08-21T11:20:10;151889.84;;;41.40;31.16
14689;BME280;7432;48.728;9.154;2023-08-21T11:22:37;152001.03;;;41.85;30.32
14689;BME280;7432;48.728;9.154;2023-08-21T11:25:04;152223.44;;;42.76;29.75
14689;BME280;7432;48.728;9.154;2023-08-21T11:27:31;152219.72;;;42.75;29.12
14689;BME280;7432;48.728;9.154;2023-08-21T11:29:57;152232.06;;;42.80;29.19
14689;BME280;7432;48.728;9.154;2023-08-21T11:32:23;152092.44;;;42.23;29.21
14689;BME280;7432;48.728;9.154;2023-08-21T11:34:51;152118.38;;;42.33;29.14
14689;BME280;7432;48.728;9.154;2023-08-21T11:37:20;152041.78;;;42.02;29.98
14689;BME280;7432;48.728;9.154;2023-08-21T11:39:49;152026.97;;;41.96;30.39
14689;BME280;7432;48.728;9.154;2023-08-21T11:42:19;151763.88;;;40.89;31.46
14689;BME280;7432;48.728;9.154;2023-08-21T11:44:48;151568.84;;;40.09;32.46
14689;BME280;7432;48.728;9.154;2023-08-21T11:47:16;151283.81;;;38.92;33.44
14689;BME280;7432;48.728;9.154;2023-08-21T11:49:44;151158.03;;;38.41;34.51
14689;BME280;7432;48.728;9.154;2023-08-21T11:52:13;151039.69;;;37.92;34.74
14689;BME280;7432;48.728;9.154;2023-08-21T11:54:41;150889.22;;;37.31;35.91
14689;BME280;7432;48.728;9.154;2023-08-21T11:57:09;150851.06;;;37.15;35.99
14689;BME280;7432;48.728;9.154;2023-08-21T11:59:38;150763.56;;;36.79;36.11
14689;BME280;7432;48.728;9.154;2023-08-21T12:02:13;150747.53;;;36.73;36.90
14689;BME280;7432;48.728;9.154;2023-08-21T12:04:40;150663.75;;;36.39;38.31
14689;BME280;7432;48.728;9.154;2023-08-21T12:07:06;150650.22;;;36.33;38.44
14689;BME280;7432;48.728;9.154;2023-08-21T12:09:33;150487.63;;;35.66;39.12
14689;BME280;7432;48.728;9.154;2023-08-21T12:12:01;150438.38;;;35.46;39.67
14689;BME280;7432;48.728;9.154;2023-08-21T12:14:28;150418.69;;;35.38;39.45
14689;BME280;7432;48.728;9.154;2023-08-21T12:16:54;150371.94;;;35.19;39.87
14689;BME280;7432;48.728;9.154;2023-08-21T12:19:21;150412.50;;;35.36;39.53
14689;BME280;7432;48.728;9.154;2023-08-21T12:21:48;150344.88;;;35.08;40.44
14689;BME280;7432;48.728;9.154;2023-08-21T12:24:14;150312.78;;;34.95;40.36
14689;BME280;7432;48.728;9.154;2023-08-21T12:26:41;150219.28;;;34.57;40.92
14689;BME280;7432;48.728;9.154;2023-08-21T12:29:08;150101.19;;;34.08;41.09
14689;BME280;7432;48.728;9.154;2023-08-21T12:31:35;150239.00;;;34.65;40.69
14689;BME280;7432;48.728;9.154;2023-08-21T12:34:02;150182.34;;;34.41;41.19
14689;BME280;7432;48.728;9.154;2023-08-21T12:36:28;150304.22;;;34.91;40.55
14689;BME280;7432;48.728;9.154;2023-08-21T12:38:55;150274.66;;;34.79;40.75
14689;BME280;7432;48.728;9.154;2023-08-21T12:41:21;150333.72;;;35.03;40.17
14689;BME280;7432;48.728;9.154;2023-08-21T12:43:47;150258.69;;;34.73;40.64
14689;BME280;7432;48.728;9.154;2023-08-21T12:46:15;150219.28;;;34.57;40.70
14689;BME280;7432;48.728;9.154;2023-08-21T12:48:41;150206.94;;;34.51;40.71
14689;BME280;7432;48.728;9.154;2023-08-21T12:51:08;150177.44;;;34.39;42.88
14689;BME280;7432;48.728;9.154;2023-08-21T12:53:35;150145.47;;;34.26;41.33
14689;BME280;7432;48.728;9.154;2023-08-21T12:56:01;150114.72;;;34.14;42.15
14689;BME280;7432;48.728;9.154;2023-08-21T12:58:29;149873.63;;;33.15;44.87
14689;BME280;7432;48.728;9.154;2023-08-21T13:00:55;149775.25;;;32.74;45.42